createdAt,value
2022-11-29T00:01:35.704Z,94279.94
2022-11-29T00:04:02.984Z,94268.03
2022-11-29T00:06:32.916Z,94273.09
2022-11-29T00:09:04.403Z,94277.88
2022-11-29T00:11:53.818Z,94274.59
2022-11-29T00:14:21.959Z,94263.75
2022-11-29T00:17:05.879Z,94273.91
2022-11-29T00:19:34.590Z,94272.25
2022-11-29T00:22:02.073Z,94273.09
2022-11-29T00:24:31.751Z,94264.59
2022-11-29T00:26:58.779Z,94268.84
2022-11-29T00:29:25.697Z,94265.69
2022-11-29T00:31:52.452Z,94262.81
2022-11-29T00:34:19.268Z,94261.28
2022-11-29T00:36:46.160Z,94257.88
2022-11-29T00:39:13.269Z,94258.00
2022-11-29T00:41:40.496Z,94254.47
2022-11-29T00:44:07.297Z,94257.88
2022-11-29T00:46:34.324Z,94261.59
2022-11-29T00:49:01.158Z,94259.44
2022-11-29T00:51:27.885Z,94263.41
2022-11-29T00:53:54.608Z,94257.19
2022-11-29T00:56:21.312Z,94259.44
2022-11-29T00:58:49.374Z,94263.66
2022-11-29T01:01:16.366Z,94263.81
2022-11-29T01:03:43.549Z,94266.94
2022-11-29T01:06:14.048Z,94264.47
2022-11-29T01:08:40.999Z,94260.13
2022-11-29T01:11:14.959Z,94266.28
2022-11-29T01:13:42.652Z,94266.94
2022-11-29T01:16:10.392Z,94268.22
2022-11-29T01:18:38.230Z,94266.41
2022-11-29T01:21:18.405Z,94270.53
2022-11-29T01:23:46.013Z,94277.97
2022-11-29T01:26:19.910Z,94277.97
2022-11-29T01:28:51.280Z,94280.56
2022-11-29T01:31:25.214Z,94272.47
2022-11-29T01:33:58.226Z,94275.06
2022-11-29T01:36:25.472Z,94271.34
2022-11-29T01:38:53.563Z,94274.09
2022-11-29T01:41:28.017Z,94276.44
2022-11-29T01:44:06.180Z,94279.72
2022-11-29T01:46:38.625Z,94270.25
2022-11-29T01:49:15.036Z,94277.78
2022-11-29T01:51:48.564Z,94278.72
2022-11-29T01:54:15.460Z,94261.88
2022-11-29T01:56:45.661Z,94273.66
2022-11-29T01:59:16.455Z,94276.13
2022-11-29T02:01:43.313Z,94267.09
2022-11-29T02:04:10.597Z,94268.44
2022-11-29T02:06:39.193Z,94269.56
2022-11-29T02:09:20.032Z,94272.03
2022-11-29T02:12:17.680Z,94271.50
2022-11-29T02:15:14.089Z,94279.03
2022-11-29T02:18:15.557Z,94284.38
2022-11-29T02:21:11.984Z,94276.44
2022-11-29T02:24:18.853Z,94277.53
2022-11-29T02:27:06.652Z,94278.34
2022-11-29T02:30:00.852Z,94267.25
2022-11-29T02:32:48.496Z,94272.31
2022-11-29T02:35:39.389Z,94278.94
2022-11-29T02:38:52.612Z,94281.00
2022-11-29T02:41:28.926Z,94272.66
2022-11-29T02:44:12.736Z,94276.19
2022-11-29T02:46:48.034Z,94272.09
2022-11-29T02:49:49.477Z,94277.31
2022-11-29T02:52:32.694Z,94281.03
2022-11-29T02:55:13.736Z,94282.53
2022-11-29T02:58:07.567Z,94279.25
2022-11-29T03:00:39.448Z,94280.91
2022-11-29T03:03:46.710Z,94283.50
2022-11-29T03:06:40.892Z,94275.41
2022-11-29T03:09:30.352Z,94283.66
2022-11-29T03:12:19.716Z,94287.19
2022-11-29T03:15:33.174Z,94292.41
2022-11-29T03:18:57.761Z,94292.72
2022-11-29T03:21:48.322Z,94289.44
2022-11-29T03:24:37.376Z,94296.25
2022-11-29T03:27:11.749Z,94292.16
2022-11-29T03:29:47.898Z,94288.88
2022-11-29T03:32:55.201Z,94292.03
2022-11-29T03:35:40.858Z,94282.00
2022-11-29T03:38:37.286Z,94295.72
2022-11-29T03:41:21.472Z,94293.28
2022-11-29T03:44:01.500Z,94294.91
2022-11-29T03:46:31.101Z,94294.91
2022-11-29T03:49:09.167Z,94294.66
2022-11-29T03:52:03.104Z,94297.25
2022-11-29T03:54:57.361Z,94299.47
2022-11-29T03:57:35.752Z,94306.72
2022-11-29T04:00:10.130Z,94302.63
2022-11-29T04:03:03.025Z,94303.28
2022-11-29T04:05:36.689Z,94303.28
2022-11-29T04:08:38.508Z,94310.28
2022-11-29T04:11:17.048Z,94303.28
2022-11-29T04:14:17.654Z,94299.88
2022-11-29T04:17:17.347Z,94294.13
2022-11-29T04:20:27.891Z,94300.13
2022-11-29T04:23:21.833Z,94297.03
2022-11-29T04:26:11.587Z,94298.78
2022-11-29T04:28:59.244Z,94304.84
2022-11-29T04:31:49.488Z,94303.19
2022-11-29T04:34:35.469Z,94305.78
2022-11-29T04:37:37.340Z,94311.94
2022-11-29T04:40:42.677Z,94308.53
2022-11-29T04:43:49.858Z,94314.53
2022-11-29T04:46:56.627Z,94310.84
2022-11-29T04:49:26.121Z,94310.56
2022-11-29T04:52:20.685Z,94310.06
2022-11-29T04:55:10.730Z,94313.63
2022-11-29T04:57:46.696Z,94316.22
2022-11-29T05:00:23.246Z,94313.06
2022-11-29T05:03:07.300Z,94318.28
2022-11-29T05:06:33.129Z,94321.16
2022-11-29T05:09:43.195Z,94326.38
2022-11-29T05:12:47.874Z,94326.50
2022-11-29T05:15:45.954Z,94327.31
2022-11-29T05:18:37.960Z,94319.13
2022-11-29T05:21:04.628Z,94336.13
2022-11-29T05:24:03.468Z,94329.25
2022-11-29T05:26:45.043Z,94329.25
2022-11-29T05:29:28.708Z,94327.06
2022-11-29T05:32:25.920Z,94334.31
2022-11-29T05:35:03.872Z,94338.72
2022-11-29T05:37:49.015Z,94321.03
2022-11-29T05:40:40.903Z,94333.66
2022-11-29T05:43:37.937Z,94330.91
2022-11-29T05:46:31.589Z,94330.50
2022-11-29T05:49:25.747Z,94336.78
2022-11-29T05:52:08.164Z,94331.16
2022-11-29T05:54:44.604Z,94337.59
2022-11-29T05:57:39.160Z,94346.25
2022-11-29T06:00:07.685Z,94344.31
2022-11-29T06:02:58.609Z,94355.41
2022-11-29T06:05:39.881Z,94350.38
2022-11-29T06:08:18.458Z,94356.09
2022-11-29T06:11:14.491Z,94352.00
2022-11-29T06:14:34.319Z,94356.38
2022-11-29T06:17:11.058Z,94358.03
2022-11-29T06:20:17.217Z,94359.69
2022-11-29T06:23:35.171Z,94351.88
2022-11-29T06:26:19.727Z,94354.47
2022-11-29T06:29:25.951Z,94361.31
2022-11-29T06:32:10.973Z,94366.00
2022-11-29T06:34:44.147Z,94376.94
2022-11-29T06:37:33.165Z,94371.59
2022-11-29T06:40:00.246Z,94376.13
2022-11-29T06:42:26.994Z,94367.63
2022-11-29T06:44:54.319Z,94376.94
2022-11-29T06:47:34.739Z,94377.47
2022-11-29T06:50:27.122Z,94375.00
2022-11-29T06:53:17.835Z,94390.25
2022-11-29T06:55:48.985Z,94374.88
2022-11-29T06:58:56.033Z,94385.16
2022-11-29T07:01:37.880Z,94385.16
2022-11-29T07:04:33.272Z,94386.78
2022-11-29T07:07:00.867Z,94393.66
2022-11-29T07:09:34.672Z,94389.81
2022-11-29T07:12:01.829Z,94394.59
2022-11-29T07:14:28.908Z,94391.88
2022-11-29T07:17:23.163Z,94398.31
2022-11-29T07:20:12.757Z,94398.31
2022-11-29T07:23:08.607Z,94400.66
2022-11-29T07:25:43.707Z,94398.06
2022-11-29T07:28:52.900Z,94401.59
2022-11-29T07:31:31.573Z,94397.38
2022-11-29T07:34:13.468Z,94396.69
2022-11-29T07:36:51.956Z,94399.00
2022-11-29T07:39:59.325Z,94403.25
2022-11-29T07:42:31.888Z,94399.69
2022-11-29T07:45:28.288Z,94399.97
2022-11-29T07:47:55.067Z,94411.75
2022-11-29T07:50:22.298Z,94406.38
2022-11-29T07:52:49.869Z,94407.38
2022-11-29T07:55:19.719Z,94411.22
2022-11-29T07:57:47.895Z,94407.91
2022-11-29T08:00:15.989Z,94409.16
2022-11-29T08:02:43.165Z,94409.41
2022-11-29T08:05:10.526Z,94417.78
2022-11-29T08:07:38.959Z,94414.19
2022-11-29T08:10:10.877Z,94414.31
2022-11-29T08:12:44.225Z,94422.13
2022-11-29T08:15:11.415Z,94409.97
2022-11-29T08:17:39.511Z,94428.88
2022-11-29T08:20:07.835Z,94426.81
2022-11-29T08:22:34.887Z,94428.72
2022-11-29T08:25:02.005Z,94408.44
2022-11-29T08:27:31.749Z,94424.06
2022-11-29T08:29:58.688Z,94422.44
2022-11-29T08:32:26.930Z,94420.06
2022-11-29T08:34:53.672Z,94428.69
2022-11-29T08:37:20.845Z,94439.13
2022-11-29T08:39:47.564Z,94439.13
2022-11-29T08:42:14.304Z,94426.50
2022-11-29T08:44:41.228Z,94419.81
2022-11-29T08:47:28.400Z,94433.06
2022-11-29T08:50:04.373Z,94430.59
2022-11-29T08:52:55.793Z,94428.81
2022-11-29T08:55:26.512Z,94423.44
2022-11-29T08:57:56.187Z,94439.31
2022-11-29T09:00:22.991Z,94431.94
2022-11-29T09:02:49.830Z,94443.16
2022-11-29T09:05:16.760Z,94423.97
2022-11-29T09:07:44.075Z,94426.00
2022-11-29T09:10:12.205Z,94435.72
2022-11-29T09:12:40.671Z,94441.50
2022-11-29T09:15:10.773Z,94433.22
2022-11-29T09:17:37.725Z,94452.13
2022-11-29T09:20:06.220Z,94444.16
2022-11-29T09:22:32.951Z,94442.50
2022-11-29T09:24:59.694Z,94444.94
2022-11-29T09:27:26.453Z,94452.06
2022-11-29T09:29:53.226Z,94445.31
2022-11-29T09:32:19.997Z,94455.88
2022-11-29T09:34:47.025Z,94439.16
2022-11-29T09:37:13.980Z,94453.97
2022-11-29T09:39:41.738Z,94450.09
2022-11-29T09:42:43.309Z,94453.75
2022-11-29T09:45:18.570Z,94461.00
2022-11-29T09:48:03.376Z,94445.66
2022-11-29T09:51:28.196Z,94464.38
2022-11-29T09:54:05.611Z,94453.13
2022-11-29T09:56:52.952Z,94448.56
2022-11-29T09:59:42.809Z,94456.34
2022-11-29T10:02:21.840Z,94460.84
2022-11-29T10:05:09.370Z,94447.25
2022-11-29T10:07:57.532Z,94450.91
2022-11-29T10:10:32.987Z,94456.09
2022-11-29T10:13:17.765Z,94447.41
2022-11-29T10:15:47.900Z,94456.50
2022-11-29T10:18:31.429Z,94444.28
2022-11-29T10:21:06.968Z,94463.69
2022-11-29T10:23:41.121Z,94459.66
2022-11-29T10:26:08.395Z,94458.09
2022-11-29T10:28:37.040Z,94450.59
2022-11-29T10:31:42.935Z,94445.72
2022-11-29T10:34:22.554Z,94447.22
2022-11-29T10:36:57.452Z,94452.50
2022-11-29T10:39:44.696Z,94447.94
2022-11-29T10:42:41.522Z,94430.03
2022-11-29T10:45:28.601Z,94451.59
2022-11-29T10:48:02.697Z,94440.31
2022-11-29T10:50:33.570Z,94450.00
2022-11-29T10:53:10.849Z,94441.94
2022-11-29T10:55:50.515Z,94451.34
2022-11-29T10:58:27.964Z,94450.69
2022-11-29T11:01:07.371Z,94448.94
2022-11-29T11:03:48.929Z,94448.94
2022-11-29T11:06:21.480Z,94441.69
2022-11-29T11:09:11.489Z,94444.16
2022-11-29T11:11:39.903Z,94445.13
2022-11-29T11:14:24.600Z,94449.75
2022-11-29T11:16:52.175Z,94440.72
2022-11-29T11:19:30.928Z,94454.47
2022-11-29T11:22:01.490Z,94440.41
2022-11-29T11:24:42.129Z,94428.91
2022-11-29T11:27:09.007Z,94438.78
2022-11-29T11:29:42.721Z,94448.31
2022-11-29T11:32:20.069Z,94453.75
2022-11-29T11:35:22.129Z,94444.09
2022-11-29T11:37:57.658Z,94433.13
2022-11-29T11:40:29.762Z,94426.75
2022-11-29T11:43:03.175Z,94444.91
2022-11-29T11:45:36.733Z,94448.88
2022-11-29T11:48:12.756Z,94438.75
2022-11-29T11:50:53.288Z,94443.38
2022-11-29T11:53:40.285Z,94446.31
2022-11-29T11:56:10.881Z,94443.38
2022-11-29T11:58:43.466Z,94456.78
2022-11-29T12:01:13.175Z,94459.59
2022-11-29T12:03:53.292Z,94460.72
2022-11-29T12:06:52.267Z,94460.38
2022-11-29T12:09:49.146Z,94452.81
2022-11-29T12:12:19.060Z,94457.94
2022-11-29T12:15:03.499Z,94466.59
2022-11-29T12:17:49.115Z,94464.97
2022-11-29T12:20:38.519Z,94462.66
2022-11-29T12:23:14.067Z,94464.66
2022-11-29T12:25:58.579Z,94467.91
2022-11-29T12:28:39.132Z,94458.84
2022-11-29T12:31:20.761Z,94467.09
2022-11-29T12:34:26.064Z,94466.56
2022-11-29T12:37:06.968Z,94475.44
2022-11-29T12:40:07.327Z,94471.03
2022-11-29T12:43:00.193Z,94472.22
2022-11-29T12:45:32.511Z,94477.63
2022-11-29T12:48:20.659Z,94474.19
2022-11-29T12:51:47.271Z,94468.59
2022-11-29T12:54:38.703Z,94477.13
2022-11-29T12:57:24.217Z,94474.34
2022-11-29T13:00:12.502Z,94470.56
2022-11-29T13:03:26.615Z,94477.28
2022-11-29T13:05:59.232Z,94480.44
2022-11-29T13:09:02.012Z,94477.44
2022-11-29T13:11:37.974Z,94470.88
2022-11-29T13:14:43.407Z,94481.03
2022-11-29T13:18:01.167Z,94479.06
2022-11-29T13:21:01.360Z,94481.34
2022-11-29T13:26:42.116Z,94471.50
2022-11-29T13:29:16.268Z,94479.03
2022-11-29T13:31:44.608Z,94476.41
2022-11-29T13:34:23.662Z,94487.59
2022-11-29T13:37:12.551Z,94481.66
2022-11-29T13:40:17.510Z,94478.88
2022-11-29T13:43:04.212Z,94482.53
2022-11-29T13:45:56.046Z,94478.91
2022-11-29T13:48:36.364Z,94481.53
2022-11-29T13:51:24.642Z,94489.53
2022-11-29T13:53:52.251Z,94490.22
2022-11-29T13:56:46.735Z,94484.63
2022-11-29T13:59:30.284Z,94490.06
2022-11-29T14:01:58.544Z,94480.53
2022-11-29T14:04:31.410Z,94493.44
2022-11-29T14:07:19.750Z,94482.78
2022-11-29T14:10:03.980Z,94497.88
2022-11-29T14:12:49.675Z,94486.84
2022-11-29T14:15:33.872Z,94488.84
2022-11-29T14:18:40.755Z,94491.81
2022-11-29T14:21:07.942Z,94495.88
2022-11-29T14:23:36.345Z,94498.66
2022-11-29T14:26:03.101Z,94499.63
2022-11-29T14:28:47.799Z,94494.03
2022-11-29T14:31:55.145Z,94498.97
2022-11-29T14:34:33.281Z,94487.63
2022-11-29T14:37:15.180Z,94507.13
2022-11-29T14:39:49.323Z,94502.34
2022-11-29T14:42:22.764Z,94511.69
2022-11-29T14:45:06.392Z,94503.84
2022-11-29T14:47:44.510Z,94512.69
2022-11-29T14:50:31.506Z,94516.59
2022-11-29T14:52:58.869Z,94514.41
2022-11-29T14:55:25.499Z,94520.97
2022-11-29T14:58:05.906Z,94524.06
2022-11-29T15:00:54.262Z,94519.63
2022-11-29T15:03:47.427Z,94514.50
2022-11-29T15:06:25.558Z,94526.16
2022-11-29T15:11:51.125Z,94525.34
2022-11-29T15:14:57.229Z,94521.06
2022-11-29T15:18:14.976Z,94526.47
2022-11-29T15:21:10.492Z,94526.91
2022-11-29T15:23:42.661Z,94531.19
2022-11-29T15:26:27.161Z,94530.81
2022-11-29T15:28:53.870Z,94539.03
2022-11-29T15:31:21.563Z,94529.78
2022-11-29T15:33:49.828Z,94546.81
2022-11-29T15:36:21.166Z,94537.94
2022-11-29T15:38:59.235Z,94538.59
2022-11-29T15:41:35.628Z,94549.88
2022-11-29T15:44:18.164Z,94547.19
2022-11-29T15:46:44.876Z,94555.38
2022-11-29T15:49:24.175Z,94560.41
2022-11-29T15:51:57.748Z,94550.22
2022-11-29T15:54:34.436Z,94560.53
2022-11-29T15:57:11.215Z,94568.19
2022-11-29T16:00:01.325Z,94567.84
2022-11-29T16:02:31.847Z,94561.56
2022-11-29T16:05:09.194Z,94573.34
2022-11-29T16:07:37.304Z,94565.66
2022-11-29T16:10:13.597Z,94584.81
2022-11-29T16:13:03.081Z,94574.63
2022-11-29T16:15:39.424Z,94571.66
2022-11-29T16:18:15.448Z,94580.97
2022-11-29T16:20:42.647Z,94580.75
2022-11-29T16:23:14.589Z,94591.91
2022-11-29T16:25:58.896Z,94584.34
2022-11-29T16:28:33.296Z,94586.56
2022-11-29T16:31:00.299Z,94586.88
2022-11-29T16:33:27.529Z,94594.25
2022-11-29T16:36:19.436Z,94588.50
2022-11-29T16:38:50.663Z,94583.84
2022-11-29T16:41:31.554Z,94588.81
2022-11-29T16:43:59.547Z,94594.03
2022-11-29T16:46:30.542Z,94595.00
2022-11-29T16:49:02.530Z,94597.59
